sensor_id;sensor_type;location;lat;lon;timestamp;noise_LAeq;noise_LA_min;noise_LA_max;noise_LA01;noise_LA95
60116;Laerm;62818;49.394;8.686;2023-05-07T00:00:24;70.12;41.22;78.78;;
60116;Laerm;62818;49.394;8.686;2023-05-07T00:01:24;69.91;41.30;79.77;;
60116;Laerm;62818;49.394;8.686;2023-05-07T00:02:26;69.98;42.03;78.66;;
60116;Laerm;62818;49.394;8.686;2023-05-07T00:03:26;69.61;39.81;79.96;;
60116;Laerm;62818;49.394;8.686;2023-05-07T00:04:27;69.77;40.13;79.67;;
60116;Laerm;62818;49.394;8.686;2023-05-07T00:05:28;69.13;40.53;79.11;;
60116;Laerm;62818;49.394;8.686;2023-05-07T00:06:29;69.44;40.89;79.76;;
60116;Laerm;62818;49.394;8.686;2023-05-07T00:07:30;69.28;39.70;79.87;;
60116;Laerm;62818;49.394;8.686;2023-05-07T00:08:30;68.78;41.82;79.77;;
60116;Laerm;62818;49.394;8.686;2023-05-07T00:09:31;68.93;40.43;80.42;;
60116;Laerm;62818;49.394;8.686;2023-05-07T00:10:31;68.95;40.03;79.68;;
60116;Laerm;62818;49.394;8.686;2023-05-07T00:11:33;69.45;39.99;79.31;;
60116;Laerm;62818;49.394;8.686;2023-05-07T00:12:33;69.07;40.03;80.28;;
60116;Laerm;62818;49.394;8.686;2023-05-07T00:13:34;68.97;39.81;80.01;;
60116;Laerm;62818;49.394;8.686;2023-05-07T00:14:35;56.89;39.70;77.12;;
60116;Laerm;62818;49.394;8.686;2023-05-07T00:15:36;68.96;39.58;80.03;;
60116;Laerm;62818;49.394;8.686;2023-05-07T00:16:36;68.83;40.89;78.69;;
60116;Laerm;62818;49.394;8.686;2023-05-07T00:17:37;69.28;38.67;79.29;;
60116;Laerm;62818;49.394;8.686;2023-05-07T00:18:38;69.15;39.34;80.84;;
60116;Laerm;62818;49.394;8.686;2023-05-07T00:19:38;69.22;42.22;80.45;;
60116;Laerm;62818;49.394;8.686;2023-05-07T00:20:39;69.10;41.38;79.95;;
60116;Laerm;62818;49.394;8.686;2023-05-07T00:21:39;68.85;41.38;79.62;;
60116;Laerm;62818;49.394;8.686;2023-05-07T00:22:40;68.92;40.03;81.23;;
60116;Laerm;62818;49.394;8.686;2023-05-07T00:23:40;69.04;39.81;79.95;;
60116;Laerm;62818;49.394;8.686;2023-05-07T00:24:41;69.17;39.08;80.04;;
60116;Laerm;62818;49.394;8.686;2023-05-07T00:25:41;69.31;39.08;79.97;;
60116;Laerm;62818;49.394;8.686;2023-05-07T00:26:42;68.86;38.05;79.00;;
60116;Laerm;62818;49.394;8.686;2023-05-07T00:27:42;68.98;41.30;79.87;;
60116;Laerm;62818;49.394;8.686;2023-05-07T00:28:42;69.08;41.75;79.29;;
60116;Laerm;62818;49.394;8.686;2023-05-07T00:29:43;69.02;42.65;79.74;;
60116;Laerm;62818;49.394;8.686;2023-05-07T00:30:44;68.70;41.96;79.40;;
60116;Laerm;62818;49.394;8.686;2023-05-07T00:31:44;69.22;42.98;80.42;;
60116;Laerm;62818;49.394;8.686;2023-05-07T00:32:44;69.00;43.09;79.76;;
60116;Laerm;62818;49.394;8.686;2023-05-07T00:33:46;69.15;42.65;79.84;;
60116;Laerm;62818;49.394;8.686;2023-05-07T00:34:46;69.42;42.82;81.85;;
60116;Laerm;62818;49.394;8.686;2023-05-07T00:35:47;68.78;42.98;79.93;;
60116;Laerm;62818;49.394;8.686;2023-05-07T00:36:48;69.31;42.93;80.23;;
60116;Laerm;62818;49.394;8.686;2023-05-07T00:37:48;68.83;43.14;80.09;;
60116;Laerm;62818;49.394;8.686;2023-05-07T00:38:50;69.11;43.44;78.41;;
60116;Laerm;62818;49.394;8.686;2023-05-07T00:39:50;69.16;43.58;80.42;;
60116;Laerm;62818;49.394;8.686;2023-05-07T00:40:50;69.64;43.94;80.20;;
60116;Laerm;62818;49.394;8.686;2023-05-07T00:41:51;69.62;43.39;81.39;;
60116;Laerm;62818;49.394;8.686;2023-05-07T00:42:52;69.60;44.03;80.55;;
60116;Laerm;62818;49.394;8.686;2023-05-07T00:43:56;69.39;43.44;80.21;;
60116;Laerm;62818;49.394;8.686;2023-05-07T00:44:58;69.83;42.98;80.22;;
60116;Laerm;62818;49.394;8.686;2023-05-07T00:45:59;69.06;43.54;79.90;;
60116;Laerm;62818;49.394;8.686;2023-05-07T00:47:03;69.60;43.77;80.16;;
60116;Laerm;62818;49.394;8.686;2023-05-07T00:48:04;70.38;43.94;81.10;;
60116;Laerm;62818;49.394;8.686;2023-05-07T00:49:05;70.17;44.03;80.52;;
60116;Laerm;62818;49.394;8.686;2023-05-07T00:50:07;69.95;43.90;80.14;;
60116;Laerm;62818;49.394;8.686;2023-05-07T00:51:10;69.95;44.19;81.14;;
60116;Laerm;62818;49.394;8.686;2023-05-07T00:52:15;69.67;44.03;80.56;;
60116;Laerm;62818;49.394;8.686;2023-05-07T00:53:16;69.80;44.69;79.75;;
60116;Laerm;62818;49.394;8.686;2023-05-07T00:54:17;70.49;44.27;81.52;;
60116;Laerm;62818;49.394;8.686;2023-05-07T00:55:18;70.18;44.38;80.09;;
60116;Laerm;62818;49.394;8.686;2023-05-07T00:56:21;70.19;44.54;80.14;;
60116;Laerm;62818;49.394;8.686;2023-05-07T00:57:24;70.05;44.23;80.53;;
60116;Laerm;62818;49.394;8.686;2023-05-07T00:58:25;69.98;44.31;81.02;;
60116;Laerm;62818;49.394;8.686;2023-05-07T00:59:26;69.98;44.54;79.44;;
60116;Laerm;62818;49.394;8.686;2023-05-07T01:00:27;69.79;44.59;80.67;;
60116;Laerm;62818;49.394;8.686;2023-05-07T01:01:28;69.94;44.19;80.80;;
60116;Laerm;62818;49.394;8.686;2023-05-07T01:02:28;69.77;43.90;80.77;;
60116;Laerm;62818;49.394;8.686;2023-05-07T01:03:29;70.22;47.40;81.25;;
60116;Laerm;62818;49.394;8.686;2023-05-07T01:04:30;69.88;44.69;79.45;;
60116;Laerm;62818;49.394;8.686;2023-05-07T01:05:30;69.76;43.86;80.17;;
60116;Laerm;62818;49.394;8.686;2023-05-07T01:06:32;70.05;44.35;79.12;;
60116;Laerm;62818;49.394;8.686;2023-05-07T01:07:35;70.05;45.77;83.00;;
60116;Laerm;62818;49.394;8.686;2023-05-07T01:08:37;70.11;44.58;82.91;;
60116;Laerm;62818;49.394;8.686;2023-05-07T01:09:40;70.45;44.59;80.42;;
60116;Laerm;62818;49.394;8.686;2023-05-07T01:10:41;70.13;44.31;80.74;;
60116;Laerm;62818;49.394;8.686;2023-05-07T01:11:43;69.98;44.07;79.62;;
60116;Laerm;62818;49.394;8.686;2023-05-07T01:14:08;69.08;44.15;80.45;;
60116;Laerm;62818;49.394;8.686;2023-05-07T01:15:10;69.64;44.47;80.12;;
60116;Laerm;62818;49.394;8.686;2023-05-07T01:16:10;69.90;44.03;80.30;;
60116;Laerm;62818;49.394;8.686;2023-05-07T01:17:11;70.06;44.54;81.28;;
60116;Laerm;62818;49.394;8.686;2023-05-07T01:18:12;70.29;44.47;80.65;;
60116;Laerm;62818;49.394;8.686;2023-05-07T01:19:12;70.24;43.94;80.53;;
60116;Laerm;62818;49.394;8.686;2023-05-07T01:20:18;69.93;44.80;79.45;;
60116;Laerm;62818;49.394;8.686;2023-05-07T01:21:25;69.61;44.43;82.20;;
60116;Laerm;62818;49.394;8.686;2023-05-07T01:22:38;69.40;44.51;80.29;;
60116;Laerm;62818;49.394;8.686;2023-05-07T01:23:39;46.01;44.23;57.74;;
60116;Laerm;62818;49.394;8.686;2023-05-07T01:24:40;70.19;44.23;81.60;;
60116;Laerm;62818;49.394;8.686;2023-05-07T01:25:41;70.28;44.15;81.21;;
60116;Laerm;62818;49.394;8.686;2023-05-07T01:26:43;69.98;44.35;80.67;;
60116;Laerm;62818;49.394;8.686;2023-05-07T01:27:44;70.06;44.73;80.55;;
60116;Laerm;62818;49.394;8.686;2023-05-07T01:28:45;70.01;44.27;79.83;;
60116;Laerm;62818;49.394;8.686;2023-05-07T01:29:46;69.95;44.27;78.72;;
60116;Laerm;62818;49.394;8.686;2023-05-07T01:30:51;69.79;45.37;80.98;;
60116;Laerm;62818;49.394;8.686;2023-05-07T01:31:52;69.68;43.99;79.33;;
60116;Laerm;62818;49.394;8.686;2023-05-07T01:33:03;69.78;44.11;79.65;;
60116;Laerm;62818;49.394;8.686;2023-05-07T01:34:08;70.24;44.51;81.49;;
60116;Laerm;62818;49.394;8.686;2023-05-07T01:35:19;69.57;44.31;80.06;;
60116;Laerm;62818;49.394;8.686;2023-05-07T01:36:22;70.07;44.80;80.72;;
60116;Laerm;62818;49.394;8.686;2023-05-07T01:37:26;69.89;45.07;79.37;;
60116;Laerm;62818;49.394;8.686;2023-05-07T01:38:28;69.81;44.76;79.62;;
60116;Laerm;62818;49.394;8.686;2023-05-07T01:39:30;70.23;44.73;81.17;;
60116;Laerm;62818;49.394;8.686;2023-05-07T01:40:31;69.86;44.43;79.21;;
60116;Laerm;62818;49.394;8.686;2023-05-07T01:41:32;70.12;45.14;80.41;;
60116;Laerm;62818;49.394;8.686;2023-05-07T01:42:32;69.93;44.07;80.16;;
60116;Laerm;62818;49.394;8.686;2023-05-07T01:43:33;70.09;44.58;80.30;;
60116;Laerm;62818;49.394;8.686;2023-05-07T01:44:34;70.01;44.23;79.99;;
60116;Laerm;62818;49.394;8.686;2023-05-07T01:45:35;69.77;44.62;79.48;;
60116;Laerm;62818;49.394;8.686;2023-05-07T01:46:36;70.07;44.15;79.37;;
60116;Laerm;62818;49.394;8.686;2023-05-07T01:47:37;70.44;44.07;81.10;;
60116;Laerm;62818;49.394;8.686;2023-05-07T01:48:38;70.16;44.62;80.26;;
60116;Laerm;62818;49.394;8.686;2023-05-07T01:49:40;70.34;44.31;80.21;;
60116;Laerm;62818;49.394;8.686;2023-05-07T01:50:41;50.27;44.27;70.42;;
60116;Laerm;62818;49.394;8.686;2023-05-07T01:51:43;69.90;44.15;81.53;;
60116;Laerm;62818;49.394;8.686;2023-05-07T01:52:44;69.97;44.39;79.62;;
60116;Laerm;62818;49.394;8.686;2023-05-07T01:53:45;69.87;44.69;78.87;;
60116;Laerm;62818;49.394;8.686;2023-05-07T01:54:48;69.94;44.15;80.88;;
60116;Laerm;62818;49.394;8.686;2023-05-07T01:55:48;69.96;44.31;80.55;;
60116;Laerm;62818;49.394;8.686;2023-05-07T01:56:48;69.83;43.90;80.67;;
60116;Laerm;62818;49.394;8.686;2023-05-07T01:57:49;70.16;44.51;81.76;;
60116;Laerm;62818;49.394;8.686;2023-05-07T01:58:50;69.94;44.47;80.09;;
60116;Laerm;62818;49.394;8.686;2023-05-07T01:59:51;69.94;44.43;80.20;;
60116;Laerm;62818;49.394;8.686;2023-05-07T02:00:52;69.77;44.62;78.91;;
60116;Laerm;62818;49.394;8.686;2023-05-07T02:01:52;69.85;44.80;79.63;;
60116;Laerm;62818;49.394;8.686;2023-05-07T02:02:53;70.01;44.47;79.29;;
60116;Laerm;62818;49.394;8.686;2023-05-07T02:03:54;70.01;44.23;80.02;;
60116;Laerm;62818;49.394;8.686;2023-05-07T02:04:54;70.08;43.94;80.92;;
60116;Laerm;62818;49.394;8.686;2023-05-07T02:05:55;70.34;44.23;81.54;;
60116;Laerm;62818;49.394;8.686;2023-05-07T02:06:56;70.29;44.23;79.96;;
60116;Laerm;62818;49.394;8.686;2023-05-07T02:07:56;70.10;44.87;79.96;;
60116;Laerm;62818;49.394;8.686;2023-05-07T02:08:56;70.11;43.94;81.30;;
60116;Laerm;62818;49.394;8.686;2023-05-07T02:09:57;70.15;44.31;81.12;;
60116;Laerm;62818;49.394;8.686;2023-05-07T02:10:57;70.33;44.07;80.91;;
60116;Laerm;62818;49.394;8.686;2023-05-07T02:11:58;69.88;44.35;80.94;;
60116;Laerm;62818;49.394;8.686;2023-05-07T02:12:58;69.92;44.43;80.34;;
60116;Laerm;62818;49.394;8.686;2023-05-07T02:14:01;69.88;44.58;79.17;;
60116;Laerm;62818;49.394;8.686;2023-05-07T02:15:02;69.96;44.47;81.43;;
60116;Laerm;62818;49.394;8.686;2023-05-07T02:16:03;69.85;44.97;79.76;;
60116;Laerm;62818;49.394;8.686;2023-05-07T02:17:04;70.02;44.23;80.74;;
60116;Laerm;62818;49.394;8.686;2023-05-07T02:18:08;70.00;44.15;80.47;;
60116;Laerm;62818;49.394;8.686;2023-05-07T02:19:09;69.84;44.58;79.83;;
60116;Laerm;62818;49.394;8.686;2023-05-07T02:20:10;70.45;45.01;80.88;;
60116;Laerm;62818;49.394;8.686;2023-05-07T02:21:13;70.13;44.79;79.71;;
60116;Laerm;62818;49.394;8.686;2023-05-07T02:22:13;69.99;44.03;79.83;;
60116;Laerm;62818;49.394;8.686;2023-05-07T02:23:14;69.83;44.15;80.03;;
60116;Laerm;62818;49.394;8.686;2023-05-07T02:24:15;69.83;44.15;79.29;;
60116;Laerm;62818;49.394;8.686;2023-05-07T02:25:15;69.87;44.39;81.06;;
60116;Laerm;62818;49.394;8.686;2023-05-07T02:26:16;70.15;44.23;80.49;;
60116;Laerm;62818;49.394;8.686;2023-05-07T02:27:16;69.89;44.19;80.24;;
60116;Laerm;62818;49.394;8.686;2023-05-07T02:28:17;70.07;44.19;80.20;;
60116;Laerm;62818;49.394;8.686;2023-05-07T02:29:17;69.92;44.11;79.53;;
60116;Laerm;62818;49.394;8.686;2023-05-07T02:30:18;69.94;44.54;81.18;;
60116;Laerm;62818;49.394;8.686;2023-05-07T02:31:18;70.05;43.99;79.90;;
60116;Laerm;62818;49.394;8.686;2023-05-07T02:32:19;69.97;44.31;79.71;;
60116;Laerm;62818;49.394;8.686;2023-05-07T02:33:20;70.05;44.15;79.80;;
60116;Laerm;62818;49.394;8.686;2023-05-07T02:34:20;70.02;44.65;79.41;;
60116;Laerm;62818;49.394;8.686;2023-05-07T02:35:21;69.93;44.51;80.40;;
60116;Laerm;62818;49.394;8.686;2023-05-07T02:36:21;69.91;44.58;80.08;;
60116;Laerm;62818;49.394;8.686;2023-05-07T02:37:22;69.67;44.58;79.11;;
60116;Laerm;62818;49.394;8.686;2023-05-07T02:38:23;70.12;44.76;80.15;;
60116;Laerm;62818;49.394;8.686;2023-05-07T02:39:23;70.21;44.69;80.57;;
60116;Laerm;62818;49.394;8.686;2023-05-07T02:40:24;69.89;44.03;80.10;;
60116;Laerm;62818;49.394;8.686;2023-05-07T02:41:24;70.03;44.90;79.54;;
60116;Laerm;62818;49.394;8.686;2023-05-07T02:42:25;70.00;44.07;80.88;;
60116;Laerm;62818;49.394;8.686;2023-05-07T02:43:25;70.12;44.27;79.69;;
60116;Laerm;62818;49.394;8.686;2023-05-07T02:44:26;70.01;44.31;80.16;;
60116;Laerm;62818;49.394;8.686;2023-05-07T02:45:26;70.19;44.07;79.89;;
60116;Laerm;62818;49.394;8.686;2023-05-07T02:46:27;70.00;43.85;80.20;;
60116;Laerm;62818;49.394;8.686;2023-05-07T02:47:27;69.89;44.15;79.55;;
60116;Laerm;62818;49.394;8.686;2023-05-07T02:48:29;70.27;44.39;80.58;;
60116;Laerm;62818;49.394;8.686;2023-05-07T02:49:29;69.97;44.76;79.40;;
60116;Laerm;62818;49.394;8.686;2023-05-07T02:50:30;70.30;44.11;81.26;;
60116;Laerm;62818;49.394;8.686;2023-05-07T02:51:30;69.93;44.27;80.64;;
60116;Laerm;62818;49.394;8.686;2023-05-07T02:52:31;69.75;44.07;80.01;;
60116;Laerm;62818;49.394;8.686;2023-05-07T02:53:32;70.21;44.39;79.56;;
60116;Laerm;62818;49.394;8.686;2023-05-07T02:54:33;69.99;44.43;79.64;;
60116;Laerm;62818;49.394;8.686;2023-05-07T02:55:33;69.88;44.51;80.50;;
60116;Laerm;62818;49.394;8.686;2023-05-07T02:56:33;70.04;44.76;80.70;;
60116;Laerm;62818;49.394;8.686;2023-05-07T02:57:34;69.88;44.87;80.69;;
60116;Laerm;62818;49.394;8.686;2023-05-07T02:58:37;69.96;44.80;82.14;;
60116;Laerm;62818;49.394;8.686;2023-05-07T02:59:39;69.88;44.39;81.20;;
60116;Laerm;62818;49.394;8.686;2023-05-07T03:00:40;69.95;45.23;80.78;;
60116;Laerm;62818;49.394;8.686;2023-05-07T03:01:40;71.46;44.23;87.18;;
60116;Laerm;62818;49.394;8.686;2023-05-07T03:02:44;69.87;44.15;79.28;;
60116;Laerm;62818;49.394;8.686;2023-05-07T03:03:48;69.67;46.82;79.07;;
60116;Laerm;62818;49.394;8.686;2023-05-07T03:04:48;70.38;44.39;79.26;;
60116;Laerm;62818;49.394;8.686;2023-05-07T03:05:49;69.83;46.35;79.16;;
60116;Laerm;62818;49.394;8.686;2023-05-07T03:06:49;69.67;44.87;80.06;;
60116;Laerm;62818;49.394;8.686;2023-05-07T03:07:50;69.00;44.39;80.50;;
60116;Laerm;62818;49.394;8.686;2023-05-07T03:08:50;68.87;44.16;78.26;;
60116;Laerm;62818;49.394;8.686;2023-05-07T03:09:51;69.10;44.43;80.04;;
60116;Laerm;62818;49.394;8.686;2023-05-07T03:10:51;69.18;44.15;79.89;;
60116;Laerm;62818;49.394;8.686;2023-05-07T03:11:52;69.06;43.90;79.43;;
60116;Laerm;62818;49.394;8.686;2023-05-07T03:12:52;69.13;44.43;77.84;;
60116;Laerm;62818;49.394;8.686;2023-05-07T03:13:53;69.22;45.23;78.88;;
60116;Laerm;62818;49.394;8.686;2023-05-07T03:14:53;69.01;45.01;78.32;;
60116;Laerm;62818;49.394;8.686;2023-05-07T03:15:57;69.15;44.97;78.82;;
60116;Laerm;62818;49.394;8.686;2023-05-07T03:16:57;69.19;44.90;78.53;;
60116;Laerm;62818;49.394;8.686;2023-05-07T03:17:58;69.23;44.73;78.17;;
60116;Laerm;62818;49.394;8.686;2023-05-07T03:18:58;68.95;44.31;79.51;;
60116;Laerm;62818;49.394;8.686;2023-05-07T03:19:59;68.77;43.93;78.74;;
60116;Laerm;62818;49.394;8.686;2023-05-07T03:20:59;68.98;44.43;79.51;;
60116;Laerm;62818;49.394;8.686;2023-05-07T03:22:00;69.32;45.07;79.76;;
60116;Laerm;62818;49.394;8.686;2023-05-07T03:23:03;69.37;44.39;80.02;;
60116;Laerm;62818;49.394;8.686;2023-05-07T03:24:04;69.23;45.30;79.21;;
60116;Laerm;62818;49.394;8.686;2023-05-07T03:25:06;69.01;44.43;77.96;;
60116;Laerm;62818;49.394;8.686;2023-05-07T03:26:09;69.35;44.23;80.04;;
60116;Laerm;62818;49.394;8.686;2023-05-07T03:27:10;69.03;44.62;79.85;;
60116;Laerm;62818;49.394;8.686;2023-05-07T03:28:10;68.95;44.31;79.39;;
60116;Laerm;62818;49.394;8.686;2023-05-07T03:29:11;69.52;44.69;81.12;;
60116;Laerm;62818;49.394;8.686;2023-05-07T03:30:12;69.22;44.69;79.29;;
60116;Laerm;62818;49.394;8.686;2023-05-07T03:31:13;69.11;45.20;79.41;;
60116;Laerm;62818;49.394;8.686;2023-05-07T03:32:13;69.14;45.14;78.17;;
60116;Laerm;62818;49.394;8.686;2023-05-07T03:33:14;69.14;44.87;78.57;;
60116;Laerm;62818;49.394;8.686;2023-05-07T03:34:15;69.30;44.47;79.68;;
60116;Laerm;62818;49.394;8.686;2023-05-07T03:35:17;57.25;44.76;77.53;;
60116;Laerm;62818;49.394;8.686;2023-05-07T03:36:21;69.15;44.23;79.88;;
60116;Laerm;62818;49.394;8.686;2023-05-07T03:37:21;69.31;44.52;79.27;;
60116;Laerm;62818;49.394;8.686;2023-05-07T03:38:22;69.30;46.07;79.97;;
60116;Laerm;62818;49.394;8.686;2023-05-07T03:39:22;69.28;44.03;81.41;;
60116;Laerm;62818;49.394;8.686;2023-05-07T03:40:23;69.45;44.19;79.09;;
60116;Laerm;62818;49.394;8.686;2023-05-07T03:41:26;69.44;44.03;79.98;;
60116;Laerm;62818;49.394;8.686;2023-05-07T03:42:28;69.52;43.90;78.99;;
60116;Laerm;62818;49.394;8.686;2023-05-07T03:43:31;69.24;44.19;79.63;;
60116;Laerm;62818;49.394;8.686;2023-05-07T03:44:35;69.53;43.99;80.58;;
60116;Laerm;62818;49.394;8.686;2023-05-07T03:45:39;68.93;44.66;78.92;;
60116;Laerm;62818;49.394;8.686;2023-05-07T03:46:40;69.25;44.23;81.55;;
60116;Laerm;62818;49.394;8.686;2023-05-07T03:47:40;69.24;43.49;77.82;;
60116;Laerm;62818;49.394;8.686;2023-05-07T03:48:43;69.45;43.81;79.41;;
60116;Laerm;62818;49.394;8.686;2023-05-07T03:49:44;69.39;44.51;79.71;;
60116;Laerm;62818;49.394;8.686;2023-05-07T03:50:45;69.60;43.58;79.64;;
60116;Laerm;62818;49.394;8.686;2023-05-07T03:51:45;69.47;43.81;79.71;;
60116;Laerm;62818;49.394;8.686;2023-05-07T03:52:46;69.25;44.58;79.67;;
60116;Laerm;62818;49.394;8.686;2023-05-07T03:53:46;69.35;43.94;80.78;;
60116;Laerm;62818;49.394;8.686;2023-05-07T03:54:46;69.21;43.68;79.33;;
60116;Laerm;62818;49.394;8.686;2023-05-07T03:55:47;69.34;44.58;79.62;;
60116;Laerm;62818;49.394;8.686;2023-05-07T03:56:47;69.51;44.31;79.76;;
60116;Laerm;62818;49.394;8.686;2023-05-07T03:57:48;69.14;44.62;80.08;;
60116;Laerm;62818;49.394;8.686;2023-05-07T03:58:48;69.40;44.11;79.75;;
60116;Laerm;62818;49.394;8.686;2023-05-07T03:59:49;69.81;44.11;81.52;;
60116;Laerm;62818;49.394;8.686;2023-05-07T04:00:49;69.01;44.54;79.66;;
60116;Laerm;62818;49.394;8.686;2023-05-07T04:01:50;69.37;44.07;81.30;;
60116;Laerm;62818;49.394;8.686;2023-05-07T04:02:50;69.67;44.43;82.23;;
60116;Laerm;62818;49.394;8.686;2023-05-07T04:03:51;69.20;44.43;79.84;;
60116;Laerm;62818;49.394;8.686;2023-05-07T04:04:52;69.68;44.23;81.32;;
60116;Laerm;62818;49.394;8.686;2023-05-07T04:05:52;69.17;44.19;80.49;;
60116;Laerm;62818;49.394;8.686;2023-05-07T04:06:52;69.08;44.35;79.01;;
60116;Laerm;62818;49.394;8.686;2023-05-07T04:07:53;68.98;44.43;78.92;;
60116;Laerm;62818;49.394;8.686;2023-05-07T04:08:53;69.24;44.11;79.65;;
60116;Laerm;62818;49.394;8.686;2023-05-07T04:09:54;69.38;44.27;78.67;;
60116;Laerm;62818;49.394;8.686;2023-05-07T04:10:56;69.59;44.83;79.87;;
60116;Laerm;62818;49.394;8.686;2023-05-07T04:11:57;69.78;44.07;80.93;;
60116;Laerm;62818;49.394;8.686;2023-05-07T04:12:57;69.46;43.58;80.27;;
60116;Laerm;62818;49.394;8.686;2023-05-07T04:13:58;69.02;44.31;79.39;;
60116;Laerm;62818;49.394;8.686;2023-05-07T04:14:58;69.39;44.23;79.55;;
60116;Laerm;62818;49.394;8.686;2023-05-07T04:16:02;69.27;43.49;81.71;;
60116;Laerm;62818;49.394;8.686;2023-05-07T04:17:03;69.52;43.58;79.68;;
60116;Laerm;62818;49.394;8.686;2023-05-07T04:18:03;69.56;43.81;81.16;;
60116;Laerm;62818;49.394;8.686;2023-05-07T04:19:04;69.42;43.63;79.20;;
60116;Laerm;62818;49.394;8.686;2023-05-07T04:20:05;69.31;43.77;79.72;;
60116;Laerm;62818;49.394;8.686;2023-05-07T04:21:20;68.56;43.77;79.12;;
60116;Laerm;62818;49.394;8.686;2023-05-07T04:22:21;69.17;43.86;79.89;;
60116;Laerm;62818;49.394;8.686;2023-05-07T04:23:21;69.01;43.77;79.90;;
60116;Laerm;62818;49.394;8.686;2023-05-07T04:24:22;69.03;43.77;78.60;;
60116;Laerm;62818;49.394;8.686;2023-05-07T04:25:22;68.83;43.24;78.74;;
60116;Laerm;62818;49.394;8.686;2023-05-07T04:26:27;69.01;45.07;81.73;;
60116;Laerm;62818;49.394;8.686;2023-05-07T04:27:28;69.08;44.66;81.16;;
60116;Laerm;62818;49.394;8.686;2023-05-07T04:28:29;69.01;43.99;80.18;;
60116;Laerm;62818;49.394;8.686;2023-05-07T04:29:29;69.08;43.24;80.52;;
60116;Laerm;62818;49.394;8.686;2023-05-07T04:30:30;69.18;43.49;81.52;;
60116;Laerm;62818;49.394;8.686;2023-05-07T04:31:30;68.72;43.24;79.59;;
60116;Laerm;62818;49.394;8.686;2023-05-07T04:32:32;68.94;43.81;79.57;;
60116;Laerm;62818;49.394;8.686;2023-05-07T04:33:33;68.92;44.80;81.48;;
60116;Laerm;62818;49.394;8.686;2023-05-07T04:34:33;68.74;43.90;80.70;;
60116;Laerm;62818;49.394;8.686;2023-05-07T04:35:35;68.70;44.15;78.07;;
60116;Laerm;62818;49.394;8.686;2023-05-07T04:36:37;68.71;44.54;80.71;;
60116;Laerm;62818;49.394;8.686;2023-05-07T04:37:38;68.58;43.19;81.18;;
60116;Laerm;62818;49.394;8.686;2023-05-07T04:38:38;68.52;42.53;80.29;;
60116;Laerm;62818;49.394;8.686;2023-05-07T04:39:39;68.49;42.98;79.93;;
60116;Laerm;62818;49.394;8.686;2023-05-07T04:40:39;68.31;42.93;78.09;;
60116;Laerm;62818;49.394;8.686;2023-05-07T04:41:40;68.39;43.77;79.82;;
60116;Laerm;62818;49.394;8.686;2023-05-07T04:42:40;68.56;42.88;80.86;;
60116;Laerm;62818;49.394;8.686;2023-05-07T04:43:41;68.73;42.76;79.36;;
60116;Laerm;62818;49.394;8.686;2023-05-07T04:44:42;68.65;42.71;79.28;;
60116;Laerm;62818;49.394;8.686;2023-05-07T04:45:42;68.35;42.82;80.89;;
60116;Laerm;62818;49.394;8.686;2023-05-07T04:46:43;67.82;42.76;78.72;;
60116;Laerm;62818;49.394;8.686;2023-05-07T04:47:43;68.11;42.88;79.80;;
60116;Laerm;62818;49.394;8.686;2023-05-07T04:48:43;68.22;42.59;80.16;;
60116;Laerm;62818;49.394;8.686;2023-05-07T04:49:44;67.74;42.59;80.32;;
60116;Laerm;62818;49.394;8.686;2023-05-07T04:50:48;67.92;42.59;78.26;;
60116;Laerm;62818;49.394;8.686;2023-05-07T04:51:48;67.93;43.04;79.64;;
60116;Laerm;62818;49.394;8.686;2023-05-07T04:52:49;68.12;42.98;80.62;;
60116;Laerm;62818;49.394;8.686;2023-05-07T04:53:49;68.18;43.09;80.86;;
60116;Laerm;62818;49.394;8.686;2023-05-07T04:54:50;68.07;42.35;80.27;;
60116;Laerm;62818;49.394;8.686;2023-05-07T04:55:57;67.47;42.65;79.67;;
60116;Laerm;62818;49.394;8.686;2023-05-07T04:56:58;68.23;43.99;80.81;;
60116;Laerm;62818;49.394;8.686;2023-05-07T04:57:58;67.65;42.88;80.59;;
60116;Laerm;62818;49.394;8.686;2023-05-07T04:59:01;68.27;42.09;81.01;;
60116;Laerm;62818;49.394;8.686;2023-05-07T05:00:02;68.05;42.41;79.65;;
60116;Laerm;62818;49.394;8.686;2023-05-07T05:01:04;67.94;42.09;80.73;;
60116;Laerm;62818;49.394;8.686;2023-05-07T05:02:05;68.03;43.04;80.49;;
60116;Laerm;62818;49.394;8.686;2023-05-07T05:03:08;67.78;42.59;80.08;;
60116;Laerm;62818;49.394;8.686;2023-05-07T05:04:09;67.99;42.47;79.85;;
60116;Laerm;62818;49.394;8.686;2023-05-07T05:05:10;68.34;42.53;80.66;;
60116;Laerm;62818;49.394;8.686;2023-05-07T05:06:11;68.01;43.39;78.49;;
60116;Laerm;62818;49.394;8.686;2023-05-07T05:07:11;67.87;42.59;80.41;;
60116;Laerm;62818;49.394;8.686;2023-05-07T05:08:12;67.84;42.16;79.29;;
60116;Laerm;62818;49.394;8.686;2023-05-07T05:09:12;67.68;41.96;80.97;;
60116;Laerm;62818;49.394;8.686;2023-05-07T05:10:13;67.98;41.61;79.44;;
60116;Laerm;62818;49.394;8.686;2023-05-07T05:11:14;67.90;42.09;80.74;;
60116;Laerm;62818;49.394;8.686;2023-05-07T05:12:15;68.08;42.47;80.91;;
60116;Laerm;62818;49.394;8.686;2023-05-07T05:13:15;67.86;41.89;80.09;;
60116;Laerm;62818;49.394;8.686;2023-05-07T05:14:16;67.68;41.89;79.60;;
60116;Laerm;62818;49.394;8.686;2023-05-07T05:15:16;67.59;41.75;79.64;;
60116;Laerm;62818;49.394;8.686;2023-05-07T05:16:17;67.32;41.68;79.24;;
60116;Laerm;62818;49.394;8.686;2023-05-07T05:17:17;67.54;41.38;80.00;;
60116;Laerm;62818;49.394;8.686;2023-05-07T05:18:18;67.22;42.16;79.41;;
60116;Laerm;62818;49.394;8.686;2023-05-07T05:19:18;66.76;41.81;77.19;;
60116;Laerm;62818;49.394;8.686;2023-05-07T05:20:21;67.00;41.68;79.80;;
60116;Laerm;62818;49.394;8.686;2023-05-07T05:21:22;66.85;41.22;80.12;;
60116;Laerm;62818;49.394;8.686;2023-05-07T05:22:22;67.28;41.61;79.80;;
60116;Laerm;62818;49.394;8.686;2023-05-07T05:23:23;66.50;41.46;76.76;;
60116;Laerm;62818;49.394;8.686;2023-05-07T05:24:23;66.79;42.03;78.21;;
60116;Laerm;62818;49.394;8.686;2023-05-07T05:25:24;66.90;41.53;79.59;;
60116;Laerm;62818;49.394;8.686;2023-05-07T05:26:27;66.84;41.38;78.12;;
60116;Laerm;62818;49.394;8.686;2023-05-07T05:27:29;67.00;40.98;80.25;;
60116;Laerm;62818;49.394;8.686;2023-05-07T05:28:29;48.90;40.98;65.33;;
60116;Laerm;62818;49.394;8.686;2023-05-07T05:29:30;68.44;40.80;79.95;;
60116;Laerm;62818;49.394;8.686;2023-05-07T05:30:31;52.48;40.53;74.63;;
60116;Laerm;62818;49.394;8.686;2023-05-07T05:31:32;67.63;40.71;79.30;;
60116;Laerm;62818;49.394;8.686;2023-05-07T05:32:33;67.03;40.62;78.32;;
60116;Laerm;62818;49.394;8.686;2023-05-07T05:33:34;66.90;41.68;79.23;;
60116;Laerm;62818;49.394;8.686;2023-05-07T05:34:35;66.69;40.80;79.26;;
60116;Laerm;62818;49.394;8.686;2023-05-07T05:35:35;66.97;41.38;78.83;;
60116;Laerm;62818;49.394;8.686;2023-05-07T05:36:36;65.84;41.14;76.72;;
60116;Laerm;62818;49.394;8.686;2023-05-07T05:37:36;66.02;40.80;76.91;;
60116;Laerm;62818;49.394;8.686;2023-05-07T05:38:37;66.00;40.13;76.29;;
60116;Laerm;62818;49.394;8.686;2023-05-07T05:39:37;66.71;39.92;77.64;;
60116;Laerm;62818;49.394;8.686;2023-05-07T05:40:38;66.11;40.33;76.83;;
60116;Laerm;62818;49.394;8.686;2023-05-07T05:41:38;66.08;40.89;77.00;;
60116;Laerm;62818;49.394;8.686;2023-05-07T05:42:39;66.27;40.23;78.77;;
60116;Laerm;62818;49.394;8.686;2023-05-07T05:43:39;66.57;40.45;79.31;;